Morgantown, WV

10:13 AM EDT on September 03, 2015 (GMT -0400)
Brooks green roof | | Change Station
CLOSE
Current Station
Personal Weather Station
Location: Morgantown, WV
Elevation: 873 ft
Nearby Weather Stations

Elev 873 ft 39.64 °N, 79.96 °W | Updated 6 minutes ago

Overcast
Overcast
71.8 °F
Feels Like 71 °F
N
4.7
Wind Variable Wind from SSE
Gusts 4.7 mph

Today
High -- | Low -- °F
--% Chance of Precip.
Yesterday
High -- | Low -- °F
Precip. -- in
6:50 AM 7:48 PM
Waning Gibbous, 70% visible
Pressure 30.03 in
Visibility 8.0 miles
Clouds Mostly Cloudy 4000 ft
Mostly Cloudy 4900 ft
Heat Index 71 °F
Dew Point 67 °F
Humidity 85%
Rainfall 0.00 in
Snow Depth Not available.
UV 2 out of 12
Pollen 8.80 out of 12
Air Quality Not available.
Flu Activity Not available.
METAR KMGW 031353Z VRB04KT 8SM BKN040 BKN049 23/18 A3006 RMK AO2 SLP168 T02280183
Pressure 30.03 in
Visibility 8.0 miles
Clouds Mostly Cloudy 4000 ft
Mostly Cloudy 4900 ft
Heat Index 71 °F
Dew Point 67 °F
Humidity 85%
Rainfall 0.00 in
Snow Depth Not available.
UV 2 out of 12
Pollen 8.80 out of 12
Air Quality Not available.
Flu Activity Not available.
METAR KMGW 031353Z VRB04KT 8SM BKN040 BKN049 23/18 A3006 RMK AO2 SLP168 T02280183

10-Day Weather Forecast

×

Almanac

Astronomy

Sep. 03, 2015 Rise Set
Actual Time
Civil Twilight
Nautical Twilight
Astronomical Twilight
Moon
Length of Visible Light
Length of Day
Tomorrow will be .
, % of the Moon is Illuminated

Today's Extremes

State Highs State Lows

Community

WunderPhotos

Upload Photos

1,851,959 photos uploaded!

WunderBlogs® & News

Nearby

Air Quality

  Air Quality AQ Index Pollutant
Not available.

Snow Depth

Station Depth Elevation

Earthquake Activity

City Distance Mag. Time & Date
Minimum magnitude displayed is 2.5.

Coastal Water Temperatures

Place Temperature

Stations

Nearby Weather Stations

Station Location Temp. Windchill Dew Point Humidity Wind Precip. Elev Updated Type